Time;durP1;ratioP1;P1;durP2;ratioP2;P2;SDS_P1;SDS_P2;PMS_P1;PMS_P2;Temp;Humidity;BMP_temperature;BMP_pressure;BME280_temperature;BME280_humidity;BME280_pressure;Samples;Min_cycle;Max_cycle;Signal;HPM_P1;HPM_P2
2024/01/02 00:00:53;;;;;;;20.70;11.90;;;;;;;6.33;100.00;99631.75;108697;1287;22166;-82
2024/01/02 00:04:25;;;;;;;21.70;11.60;;;;;;;6.31;100.00;99625.77;108766;1287;22070;-82
2024/01/02 00:11:48;;;;;;;20.20;11.90;;;;;;;6.23;100.00;99633.27;108587;1288;22791;-82
2024/01/02 00:15:05;;;;;;;;;;;;;;;;;;;;;
2024/01/02 00:20:19;;;;;;;;;;;;;;;;;;;;;
2024/01/02 00:23:41;;;;;;;20.70;11.10;;;;;;;5.98;100.00;99614.16;108953;1283;22025;-83
2024/01/02 00:27:59;;;;;;;16.50;10.60;;;;;;;6.08;100.00;99628.36;109211;1278;22079;-83
2024/01/02 00:44:06;;;;;;;16.40;8.90;;;;;;;6.11;100.00;99628.64;108167;1290;23817;-82
2024/01/02 00:47:27;;;;;;;11.40;7.60;;;;;;;6.12;100.00;99629.13;107964;1296;22035;-80
2024/01/02 01:07:17;;;;;;;12.50;7.30;;;;;;;7.77;100.00;99624.38;108086;1293;548371;-83
2024/01/02 01:12:12;;;;;;;;;;;;;;;;;;;;;
2024/01/02 01:16:22;;;;;;;12.00;7.70;;;;;;;7.25;100.00;99629.86;109158;1280;23711;-85
2024/01/02 01:21:05;;;;;;;;;;;;;;;;;;;;;
2024/01/02 01:39:45;;;;;;;;;;;;;;;;;;;;;
2024/01/02 01:47:09;;;;;;;;;;;;;;;;;;;;;
2024/01/02 01:51:19;;;;;;;10.00;6.50;;;;;;;7.14;100.00;99628.67;108996;1284;23911;-83
2024/01/02 01:54:22;;;;;;;10.20;6.70;;;;;;;6.90;100.00;99628.16;108957;1284;22095;-83
2024/01/02 02:01:46;;;;;;;9.80;5.90;;;;;;;6.60;100.00;99628.45;108698;1289;21976;-82
2024/01/02 02:05:32;;;;;;;8.50;5.60;;;;;;;6.51;100.00;99630.80;108679;1288;22294;-82
2024/01/02 02:20:21;;;;;;;;;;;;;;;;;;;;;
2024/01/02 02:23:08;;;;;;;6.40;4.50;;;;;;;6.35;100.00;99635.48;107232;1301;22958;-83
2024/01/02 02:25:50;;;;;;;6.30;3.90;;;;;;;6.36;100.00;99633.91;107139;1301;22034;-83
2024/01/02 02:28:32;;;;;;;7.00;5.40;;;;;;;6.37;100.00;99632.45;107159;1302;22066;-84
2024/01/02 02:32:06;;;;;;;9.70;5.10;;;;;;;6.40;100.00;99632.92;107245;1301;22538;-82
2024/01/02 02:35:28;;;;;;;6.50;4.80;;;;;;;6.50;100.00;99622.36;108152;1293;545797;-83
2024/01/02 02:38:47;;;;;;;;;;;;;;;;;;;;;
2024/01/02 02:42:05;;;;;;;5.60;4.70;;;;;;;6.37;100.00;99624.36;111049;1261;21988;-83
2024/01/02 02:46:06;;;;;;;;;;;;;;;;;;;;;
2024/01/02 02:49:38;;;;;;;;;;;;;;;;;;;;;
2024/01/02 02:53:37;;;;;;;6.70;4.20;;;;;;;6.23;100.00;99630.83;111072;1260;22058;-83
2024/01/02 02:57:26;;;;;;;8.10;4.90;;;;;;;6.21;100.00;99633.67;110996;1260;22217;-83
2024/01/02 03:01:27;;;;;;;;;;;;;;;;;;;;;
2024/01/02 03:05:31;;;;;;;11.10;6.00;;;;;;;6.22;100.00;99628.45;111828;1252;22169;-82
2024/01/02 03:09:14;;;;;;;;;;;;;;;;;;;;;
2024/01/02 03:13:09;;;;;;;5.70;4.30;;;;;;;6.24;100.00;99633.39;110401;1268;22065;-83
2024/01/02 03:20:18;;;;;;;8.20;4.80;;;;;;;6.24;100.00;99628.92;108441;1291;23754;-82
2024/01/02 03:23:50;;;;;;;6.10;4.50;;;;;;;6.24;100.00;99631.17;108499;1291;22010;-86
2024/01/02 03:26:51;;;;;;;8.30;5.30;;;;;;;6.22;100.00;99628.11;107809;1285;23876;-88
2024/01/02 03:29:44;;;;;;;7.50;5.80;;;;;;;6.26;100.00;99627.46;107922;1291;22001;-82
2024/01/02 03:32:47;;;;;;;;;;;;;;;;;;;;;
2024/01/02 03:35:36;;;;;;;5.30;4.50;;;;;;;6.31;100.00;99634.23;108250;1289;22026;-84
2024/01/02 03:38:36;;;;;;;8.80;5.80;;;;;;;6.31;100.00;99640.80;108263;1288;22135;-85
2024/01/02 03:42:26;;;;;;;8.60;5.50;;;;;;;6.30;100.00;99636.32;108245;1289;22002;-86
2024/01/02 03:45:19;;;;;;;8.00;5.10;;;;;;;6.25;100.00;99634.25;108020;1293;22023;-83
2024/01/02 03:49:28;;;;;;;;;;;;;;;;;;;;;
2024/01/02 03:52:15;;;;;;;7.00;5.00;;;;;;;6.26;100.00;99626.08;107967;1285;22027;-82
2024/01/02 04:00:40;;;;;;;;;;;;;;;;;;;;;
2024/01/02 04:04:52;;;;;;;;;;;;;;;;;;;;;
2024/01/02 04:09:07;;;;;;;9.40;5.20;;;;;;;6.18;100.00;99629.09;108605;1287;21994;-85
2024/01/02 04:12:34;;;;;;;;;;;;;;;;;;;;;
2024/01/02 04:15:49;;;;;;;15.10;9.90;;;;;;;6.15;100.00;99627.64;107896;1293;22021;-84
2024/01/02 04:23:11;;;;;;;30.10;19.30;;;;;;;6.11;100.00;99628.42;108463;1289;21999;-84
2024/01/02 04:29:20;;;;;;;;;;;;;;;6.05;100.00;99625.70;108039;1289;22003;-84
2024/01/02 04:31:53;;;;;;;8.20;4.70;;;;;;;5.94;100.00;99624.27;108465;1289;23732;-84
2024/01/02 04:35:00;;;;;;;10.00;5.20;;;;;;;5.94;100.00;99624.48;108292;1289;22006;-84
2024/01/02 04:38:33;;;;;;;9.60;4.80;;;;;;;5.91;100.00;99626.27;108160;1289;22014;-85
2024/01/02 04:40:59;;;;;;;;;;;;;;;;;;;;;
2024/01/02 04:44:44;;;;;;;9.20;4.80;;;;;;;5.86;100.00;99628.85;108864;1281;22023;-86
2024/01/02 04:48:40;;;;;;;10.40;4.90;;;;;;;5.85;100.00;99628.52;109020;1281;23705;-85
2024/01/02 04:52:22;;;;;;;9.10;4.70;;;;;;;5.84;100.00;99629.94;108706;1285;22198;-84
2024/01/02 04:55:17;;;;;;;10.10;4.30;;;;;;;5.87;100.00;99630.02;108532;1285;22085;-84
2024/01/02 04:58:16;;;;;;;10.40;4.90;;;;;;;5.88;100.00;99627.39;108745;1280;23702;-83
2024/01/02 05:02:22;;;;;;;10.20;5.70;;;;;;;5.89;100.00;99629.95;108797;1285;22017;-84
2024/01/02 05:15:07;;;;;;;10.90;4.70;;;;;;;5.84;100.00;99616.29;107136;1303;23783;-84
2024/01/02 05:18:05;;;;;;;11.70;6.00;;;;;;;5.96;100.00;99609.55;108022;1293;544031;-82
2024/01/02 05:20:42;;;;;;;13.50;5.80;;;;;;;5.93;100.00;99613.10;110556;1262;21983;-83
2024/01/02 05:23:27;;;;;;;12.70;6.70;;;;;;;5.93;100.00;99615.86;110801;1262;21983;-82
2024/01/02 05:26:17;;;;;;;11.50;6.20;;;;;;;5.93;100.00;99613.62;110063;1268;22915;-83
2024/01/02 05:29:09;;;;;;;;;;;;;;;;;;;;;
2024/01/02 05:31:50;;;;;;;9.80;5.10;;;;;;;5.86;100.00;99608.81;107823;1268;2815656;-81
2024/01/02 05:34:23;;;;;;;;;;;;;;;5.85;100.00;99609.36;110023;1268;22052;-82
2024/01/02 05:37:11;;;;;;;11.90;5.40;;;;;;;5.74;100.00;99608.81;110380;1268;23030;-85
2024/01/02 05:40:50;;;;;;;;;;;;;;;;;;;;;
2024/01/02 05:50:40;;;;;;;13.90;6.50;;;;;;;5.65;100.00;99608.55;108133;1293;22057;-83
2024/01/02 05:57:42;;;;;;;;;;;;;;;;;;;;;
2024/01/02 06:00:20;;;;;;;9.80;6.10;;;;;;;5.73;100.00;99600.89;107760;1296;22483;-83
2024/01/02 06:08:26;;;;;;;;;;;;;;;;;;;;;
2024/01/02 06:12:41;;;;;;;20.10;8.90;;;;;;;5.72;100.00;99603.02;107435;1302;23173;-82
2024/01/02 06:30:58;;;;;;;14.40;8.90;;;;;;;7.28;100.00;99602.48;108451;1283;548751;-80
2024/01/02 06:36:00;;;;;;;19.10;13.20;;;;;;;7.47;100.00;99604.66;103698;1263;9058481;-85
2024/01/02 06:44:44;;;;;;;;;;;;;;;;;;;;;
2024/01/02 06:47:51;;;;;;;20.90;12.20;;;;;;;5.96;100.00;99596.27;107965;1292;22006;-83
2024/01/02 06:51:00;;;;;;;18.70;11.00;;;;;;;5.80;100.00;99607.76;107746;1292;23631;-83
2024/01/02 06:54:22;;;;;;;;;;;;;;;;;;;;;
2024/01/02 06:57:53;;;;;;;;;;;;;;;;;;;;;
2024/01/02 07:01:30;;;;;;;;;;;;;;;;;;;;;
2024/01/02 07:05:44;;;;;;;31.20;20.20;;;;;;;5.43;100.00;99615.07;108391;1291;23596;-83
2024/01/02 07:13:12;;;;;;;26.60;16.10;;;;;;;5.42;100.00;99608.02;106790;1307;22075;-85
2024/01/02 07:16:33;;;;;;;;;;;;;;;;;;;;;
2024/01/02 07:30:54;;;;;;;;;;;;;;;;;;;;;
2024/01/02 07:34:15;;;;;;;22.50;12.00;;;;;;;7.34;100.00;99580.90;110257;1266;292319;-84
2024/01/02 07:37:44;;;;;;;25.70;13.60;;;;;;;6.77;100.00;99573.23;109762;1271;21984;-83
2024/01/02 07:41:15;;;;;;;42.30;24.70;;;;;;;6.44;100.00;99577.64;109794;1271;21986;-85
2024/01/02 07:45:28;;;;;;;59.60;41.00;;;;;;;6.20;100.00;99576.88;110339;1268;21995;-86
2024/01/02 07:48:57;;;;;;;;;;;;;;;;;;;;;
2024/01/02 07:52:28;;;;;;;26.90;17.00;;;;;;;6.02;100.00;99569.30;110599;1262;22697;-83
2024/01/02 07:55:39;;;;;;;22.60;15.90;;;;;;;5.99;100.00;99570.10;110987;1262;21956;-83
2024/01/02 07:58:46;;;;;;;22.00;12.80;;;;;;;5.97;100.00;99569.64;110806;1262;23732;-86
2024/01/02 08:02:24;;;;;;;26.80;17.20;;;;;;;5.91;100.00;99576.52;110978;1262;23586;-86
2024/01/02 08:05:14;;;;;;;23.80;14.00;;;;;;;5.89;100.00;99578.67;110721;1262;22136;-84
2024/01/02 08:08:37;;;;;;;20.80;13.90;;;;;;;5.83;100.00;99572.96;110603;1261;22976;-84
2024/01/02 08:11:25;;;;;;;25.80;14.50;;;;;;;5.80;100.00;99571.16;110996;1261;21985;-84
2024/01/02 08:18:28;;;;;;;29.30;16.10;;;;;;;5.69;100.00;99570.13;110942;1260;21973;-83
2024/01/02 08:22:19;;;;;;;;;;;;;;;;;;;;;
2024/01/02 08:25:45;;;;;;;25.30;13.90;;;;;;;5.67;100.00;99570.88;110853;1258;21962;-83
2024/01/02 08:29:06;;;;;;;23.10;12.60;;;;;;;5.64;100.00;99578.56;111160;1259;23022;-83
2024/01/02 08:32:46;;;;;;;;;;;;;;;;;;;;;
2024/01/02 08:36:17;;;;;;;26.10;18.80;;;;;;;5.64;100.00;99573.05;110283;1267;23502;-83
2024/01/02 08:39:32;;;;;;;26.70;17.10;;;;;;;5.63;100.00;99575.66;109544;1273;22998;-83
2024/01/02 08:44:13;;;;;;;;;;;;;;;;;;;;;
2024/01/02 08:47:25;;;;;;;25.60;14.80;;;;;;;5.58;100.00;99569.25;108641;1289;22007;-86
2024/01/02 08:50:41;;;;;;;21.80;12.70;;;;;;;5.61;100.00;99565.52;108912;1284;22015;-86
2024/01/02 08:54:13;;;;;;;;;;;;;;;;;;;;;
2024/01/02 08:57:46;;;;;;;;;;;;;;;;;;;;;
2024/01/02 09:01:46;;;;;;;23.60;11.20;;;;;;;5.69;100.00;99557.00;109799;1270;22983;-88
2024/01/02 09:04:59;;;;;;;21.90;12.90;;;;;;;5.73;100.00;99559.30;109987;1270;21964;-88
2024/01/02 09:08:57;;;;;;;;;;;;;;;;;;;;;
2024/01/02 09:12:39;;;;;;;21.90;12.00;;;;;;;5.77;100.00;99556.23;109882;1274;21802;-86
2024/01/02 09:15:35;;;;;;;22.50;11.20;;;;;;;5.82;100.00;99555.41;109660;1274;21990;-83
2024/01/02 09:18:42;;;;;;;21.40;11.80;;;;;;;5.85;100.00;99555.13;109855;1267;21991;-83
2024/01/02 09:22:29;;;;;;;;;;;;;;;;;;;;;
2024/01/02 09:52:52;;;;;;;32.40;25.10;;;;;;;7.69;100.00;99508.13;111272;1254;547936;-86
2024/01/02 09:56:34;;;;;;;35.80;23.50;;;;;;;7.88;100.00;99494.48;110125;1241;2915219;-88
2024/01/02 10:00:45;;;;;;;38.40;24.40;;;;;;;7.26;100.00;99483.23;112395;1249;21984;-86
2024/01/02 10:05:20;;;;;;;;;;;;;;;;;;;;;
2024/01/02 10:10:04;;;;;;;;;;;;;;;;;;;;;
2024/01/02 10:14:20;;;;;;;29.70;18.20;;;;;;;6.56;100.00;99468.00;111782;1255;23623;-86
2024/01/02 10:18:40;;;;;;;33.90;20.20;;;;;;;6.50;100.00;99460.41;111686;1255;22001;-86
2024/01/02 10:23:43;;;;;;;;;;;;;;;;;;;;;
2024/01/02 10:28:05;;;;;;;46.40;27.20;;;;;;;6.45;100.00;99430.52;110981;1264;22018;-90
2024/01/02 10:32:54;;;;;;;;;;;;;;;;;;;;;
2024/01/02 10:38:26;;;;;;;;;;;;;;;;;;;;;
2024/01/02 10:42:23;;;;;;;;;;;;;;;;;;;;;
2024/01/02 10:51:54;;;;;;;40.70;21.80;;;;;;;6.24;100.00;99395.48;111443;1260;22054;-89
2024/01/02 10:56:44;;;;;;;56.90;24.80;;;;;;;6.22;100.00;99395.04;111026;1260;21973;-85
2024/01/02 11:00:04;;;;;;;25.40;14.30;;;;;;;6.14;100.00;99385.45;111144;1259;22029;-86
2024/01/02 11:03:25;;;;;;;22.30;13.30;;;;;;;6.13;100.00;99385.16;111565;1255;23700;-86
2024/01/02 11:06:58;;;;;;;29.60;16.50;;;;;;;6.06;100.00;99376.97;110930;1261;21975;-86
2024/01/02 11:10:21;;;;;;;;;;;;;;;6.02;100.00;99374.66;110923;1261;23052;-85
2024/01/02 11:13:38;;;;;;;60.60;34.20;;;;;;;5.92;100.00;99369.10;111427;1253;23616;-80
2024/01/02 11:17:21;;;;;;;90.40;57.70;;;;;;;5.88;100.00;99354.55;111705;1247;22018;-81
2024/01/02 11:22:20;;;;;;;;;;;;;;;;;;;;;
2024/01/02 11:26:44;;;;;;;32.10;17.60;;;;;;;5.90;100.00;99318.58;110390;1261;22109;-80
2024/01/02 11:34:03;;;;;;;48.90;27.30;;;;;;;6.04;100.00;99312.77;110621;1263;22002;-81
2024/01/02 11:37:34;;;;;;;83.00;41.40;;;;;;;6.06;100.00;99305.44;110579;1263;22026;-80
2024/01/02 11:41:39;;;;;;;80.40;35.80;;;;;;;6.14;100.00;99289.07;110632;1263;22497;-79
2024/01/02 11:45:47;;;;;;;45.20;26.00;;;;;;;6.20;100.00;99289.55;110832;1258;21971;-80
2024/01/02 11:49:25;;;;;;;27.90;14.90;;;;;;;6.20;100.00;99282.48;110812;1262;23051;-80
2024/01/02 11:52:48;;;;;;;25.50;13.60;;;;;;;6.20;100.00;99274.86;110036;1268;23076;-81
2024/01/02 11:56:18;;;;;;;25.00;13.60;;;;;;;6.21;100.00;99267.94;110103;1268;22025;-82
2024/01/02 12:00:13;;;;;;;;;;;;;;;;;;;;;
2024/01/02 12:03:15;;;;;;;33.60;15.40;;;;;;;6.27;100.00;99257.02;110917;1257;21983;-82
2024/01/02 12:07:10;;;;;;;29.50;16.70;;;;;;;6.33;100.00;99255.05;110846;1261;22334;-81
2024/01/02 12:10:29;;;;;;;29.20;15.40;;;;;;;6.37;100.00;99251.96;110826;1259;21986;-81
2024/01/02 12:14:42;;;;;;;31.50;14.30;;;;;;;6.32;100.00;99248.52;110941;1259;22247;-83
2024/01/02 12:18:41;;;;;;;22.10;12.70;;;;;;;6.28;100.00;99238.80;110166;1268;21992;-81
2024/01/02 12:22:11;;;;;;;29.10;14.40;;;;;;;6.27;100.00;99230.89;109570;1270;22131;-81
2024/01/02 12:25:46;;;;;;;25.10;12.80;;;;;;;6.28;100.00;99219.14;109988;1268;22008;-81
2024/01/02 12:29:42;;;;;;;;;;;;;;;;;;;;;
2024/01/02 12:33:27;;;;;;;52.30;41.10;;;;;;;6.17;100.00;99210.20;109964;1266;22006;-79
2024/01/02 12:37:14;;;;;;;;;;;;;;;;;;;;;
2024/01/02 12:44:19;;;;;;;39.80;19.40;;;;;;;6.25;100.00;99204.20;109392;1273;21988;-82
2024/01/02 12:47:44;;;;;;;;;;;;;;;;;;;;;
2024/01/02 12:57:38;;;;;;;;;;;;;;;;;;;;;
2024/01/02 13:01:42;;;;;;;24.10;14.00;;;;;;;6.38;100.00;99169.84;110482;1259;22339;-79
2024/01/02 13:05:34;;;;;;;23.80;12.30;;;;;;;6.42;100.00;99167.95;110923;1259;21998;-79
2024/01/02 13:08:50;;;;;;;;;;;;;;;;;;;;;
2024/01/02 13:12:26;;;;;;;24.60;14.20;;;;;;;6.40;100.00;99160.23;111771;1250;21965;-81
2024/01/02 13:15:35;;;;;;;24.30;15.40;;;;;;;6.39;100.00;99161.15;111723;1249;21982;-81
2024/01/02 13:18:22;;;;;;;26.80;17.50;;;;;;;6.37;100.00;99166.08;112170;1247;22064;-82
2024/01/02 13:21:20;;;;;;;50.40;33.50;;;;;;;6.37;100.00;99171.94;111628;1252;22868;-81
2024/01/02 13:24:03;;;;;;;37.90;25.10;;;;;;;6.37;100.00;99170.72;111631;1252;23614;-81
2024/01/02 13:27:04;;;;;;;31.30;23.30;;;;;;;6.38;100.00;99176.91;111761;1252;23594;-82
2024/01/02 13:30:40;;;;;;;27.00;13.90;;;;;;;6.34;100.00;99174.14;111165;1258;22275;-80
2024/01/02 13:34:04;;;;;;;24.60;15.10;;;;;;;6.28;100.00;99158.64;111011;1258;21969;-79
2024/01/02 13:36:54;;;;;;;22.70;15.50;;;;;;;6.27;100.00;99149.01;111244;1258;22006;-83
2024/01/02 13:39:52;;;;;;;29.30;17.60;;;;;;;6.27;100.00;99150.40;111538;1252;21987;-82
2024/01/02 13:42:36;;;;;;;25.00;15.40;;;;;;;6.26;100.00;99147.48;111400;1252;22764;-82
2024/01/02 13:45:41;;;;;;;27.80;16.30;;;;;;;6.24;100.00;99143.05;111510;1252;22762;-80
2024/01/02 13:48:20;;;;;;;20.60;13.50;;;;;;;6.23;100.00;99137.23;111806;1246;21938;-81
2024/01/02 13:54:22;;;;;;;21.30;12.30;;;;;;;6.08;100.00;99119.67;111905;1250;21990;-82
2024/01/02 13:57:16;;;;;;;27.30;14.70;;;;;;;6.14;100.00;99128.78;112640;1241;23902;-80
2024/01/02 13:59:48;;;;;;;21.60;13.50;;;;;;;6.13;100.00;99119.33;112730;1241;22271;-78
2024/01/02 14:02:27;;;;;;;28.00;19.00;;;;;;;6.12;100.00;99111.41;111998;1246;21951;-77
2024/01/02 14:05:07;;;;;;;28.80;17.70;;;;;;;6.10;100.00;99107.70;112065;1245;23064;-79
2024/01/02 14:07:54;;;;;;;28.30;16.40;;;;;;;6.05;100.00;99112.21;111998;1246;21957;-76
2024/01/02 14:10:35;;;;;;;23.40;16.10;;;;;;;6.04;100.00;99108.29;112067;1246;21971;-77
2024/01/02 14:13:37;;;;;;;27.20;15.80;;;;;;;6.02;100.00;99103.66;112284;1246;21966;-79
2024/01/02 14:16:35;;;;;;;24.50;13.80;;;;;;;5.98;100.00;99100.23;111837;1248;24296;-77
2024/01/02 14:19:16;;;;;;;29.30;16.50;;;;;;;5.94;100.00;99098.29;111731;1250;21976;-78
2024/01/02 14:22:54;;;;;;;32.10;18.20;;;;;;;5.90;100.00;99094.81;111384;1251;21989;-76
2024/01/02 14:27:06;;;;;;;;;;;;;;;;;;;;;
2024/01/02 14:30:10;;;;;;;24.80;14.30;;;;;;;5.77;100.00;99092.87;112382;1247;21974;-79
2024/01/02 14:34:32;;;;;;;;;;;;;;;;;;;;;
2024/01/02 14:37:50;;;;;;;34.70;20.10;;;;;;;5.68;100.00;99075.08;112636;1242;21936;-78
2024/01/02 14:41:49;;;;;;;42.00;25.20;;;;;;;5.64;100.00;99070.24;112903;1243;22300;-81
2024/01/02 14:45:05;;;;;;;38.40;22.40;;;;;;;5.60;100.00;99072.60;112276;1246;22198;-80
2024/01/02 14:48:18;;;;;;;42.00;27.80;;;;;;;5.59;100.00;99064.20;112160;1246;21992;-79
2024/01/02 14:51:46;;;;;;;35.30;19.40;;;;;;;5.56;100.00;99061.92;112433;1246;21975;-80
2024/01/02 14:55:11;;;;;;;34.50;21.10;;;;;;;5.51;100.00;99054.87;112856;1242;21919;-81
2024/01/02 14:58:16;;;;;;;45.40;24.70;;;;;;;5.45;100.00;99044.70;112252;1248;22449;-80
2024/01/02 15:01:46;;;;;;;43.60;22.20;;;;;;;5.45;100.00;99036.79;112402;1248;21970;-82
2024/01/02 15:05:23;;;;;;;36.30;28.00;;;;;;;5.42;100.00;99032.06;111596;1253;22377;-81
2024/01/02 15:11:49;;;;;;;39.80;24.70;;;;;;;5.37;100.00;99027.94;111848;1253;21981;-80
2024/01/02 15:14:53;;;;;;;27.30;18.90;;;;;;;5.35;100.00;99019.23;111674;1253;22220;-82
2024/01/02 15:18:29;;;;;;;40.90;28.40;;;;;;;5.31;100.00;99015.05;111254;1253;21947;-83
2024/01/02 15:22:13;;;;;;;;;;;;;;;;;;;;;
2024/01/02 15:25:34;;;;;;;31.40;19.60;;;;;;;5.24;100.00;99010.66;111040;1258;22106;-81
2024/01/02 15:28:20;;;;;;;;;;;;;;;5.23;100.00;99010.35;110286;1264;22118;-81
2024/01/02 15:31:12;;;;;;;;;;;;;;;5.17;100.00;99005.55;110328;1265;23645;-78
2024/01/02 15:34:40;;;;;;;28.40;16.80;;;;;;;5.10;100.00;98995.84;110804;1256;21965;-80
2024/01/02 15:37:27;;;;;;;35.90;25.00;;;;;;;5.12;100.00;98982.67;110950;1258;21960;-77
2024/01/02 15:40:19;;;;;;;50.30;32.40;;;;;;;5.16;100.00;98978.89;111066;1258;21980;-78
2024/01/02 15:43:51;;;;;;;47.90;29.10;;;;;;;5.18;100.00;98975.36;110696;1258;22584;-82
2024/01/02 15:47:01;;;;;;;45.20;28.10;;;;;;;5.16;100.00;98970.80;110495;1263;23620;-80
2024/01/02 15:49:44;;;;;;;;;;;;;;;5.14;100.00;98963.77;110487;1264;21998;-78
2024/01/02 15:53:45;;;;;;;35.60;22.10;;;;;;;5.06;100.00;98949.74;110197;1263;21972;-81
2024/01/02 15:56:36;;;;;;;28.50;20.20;;;;;;;5.05;100.00;98950.14;109748;1269;22924;-79
2024/01/02 16:00:12;;;;;;;36.30;24.60;;;;;;;5.06;100.00;98955.61;109955;1269;21992;-80
2024/01/02 16:04:15;;;;;;;46.60;32.10;;;;;;;5.10;100.00;98954.09;110492;1262;21998;-82
2024/01/02 16:07:39;;;;;;;34.80;23.50;;;;;;;5.10;100.00;98940.12;111202;1255;22990;-79
2024/01/02 16:10:40;;;;;;;22.40;12.60;;;;;;;5.12;100.00;98936.10;111037;1257;22571;-79
2024/01/02 16:14:11;;;;;;;23.90;14.60;;;;;;;5.13;100.00;98933.48;111304;1257;21990;-79
2024/01/02 16:18:21;;;;;;;24.60;13.40;;;;;;;5.10;100.00;98931.17;111419;1255;23120;-79
2024/01/02 16:21:38;;;;;;;24.90;15.30;;;;;;;5.12;100.00;98931.10;111555;1254;22068;-79
2024/01/02 16:25:11;;;;;;;19.20;12.20;;;;;;;5.11;100.00;98928.02;112305;1248;22450;-81
2024/01/02 16:28:25;;;;;;;29.30;14.80;;;;;;;5.10;100.00;98923.05;111546;1255;21988;-81
2024/01/02 16:31:32;;;;;;;25.70;15.00;;;;;;;5.14;100.00;98927.55;111538;1255;22032;-81
2024/01/02 16:34:51;;;;;;;24.50;15.10;;;;;;;5.15;100.00;98926.83;111394;1251;21960;-79
2024/01/02 16:38:24;;;;;;;31.10;23.70;;;;;;;5.16;100.00;98923.36;111106;1259;22013;-80
2024/01/02 16:41:41;;;;;;;48.40;30.10;;;;;;;5.14;100.00;98915.52;110804;1259;21987;-81
2024/01/02 16:44:28;;;;;;;39.70;25.30;;;;;;;5.09;100.00;98907.41;110914;1258;21977;-81
2024/01/02 16:47:10;;;;;;;52.00;30.80;;;;;;;5.08;100.00;98901.92;112070;1244;23776;-79
2024/01/02 16:49:50;;;;;;;55.50;33.60;;;;;;;5.08;100.00;98901.25;112559;1244;21971;-82
2024/01/02 16:52:42;;;;;;;39.80;23.70;;;;;;;5.07;100.00;98896.27;112092;1248;21980;-81
2024/01/02 16:55:26;;;;;;;25.60;15.90;;;;;;;5.08;100.00;98890.38;112155;1245;21953;-79
2024/01/02 16:58:33;;;;;;;22.40;14.30;;;;;;;5.06;100.00;98892.01;111710;1251;21979;-80
2024/01/02 17:01:48;;;;;;;22.00;13.30;;;;;;;5.06;100.00;98890.81;111712;1251;21969;-77
2024/01/02 17:04:33;;;;;;;24.10;14.00;;;;;;;5.05;100.00;98881.53;111560;1249;21959;-79
2024/01/02 17:07:08;;;;;;;20.70;12.70;;;;;;;5.06;100.00;98880.96;111676;1249;23625;-78
2024/01/02 17:10:08;;;;;;;27.20;15.20;;;;;;;5.06;100.00;98876.47;111505;1254;21969;-78
2024/01/02 17:12:42;;;;;;;24.90;15.00;;;;;;;5.07;100.00;98870.74;111170;1254;23048;-78
2024/01/02 17:15:16;;;;;;;26.60;17.30;;;;;;;5.11;100.00;98867.85;111205;1253;22299;-80
2024/01/02 17:17:54;;;;;;;22.10;11.90;;;;;;;5.13;100.00;98865.02;112270;1247;21948;-80
2024/01/02 17:20:32;;;;;;;46.50;31.10;;;;;;;5.11;100.00;98854.75;111966;1247;21981;-80
2024/01/02 17:24:07;;;;;;;35.50;20.10;;;;;;;5.10;100.00;98842.02;112625;1239;22060;-80
2024/01/02 17:26:50;;;;;;;32.90;20.20;;;;;;;5.09;100.00;98831.36;112744;1239;22002;-81
2024/01/02 17:29:36;;;;;;;30.70;19.30;;;;;;;5.12;100.00;98825.20;113161;1238;21952;-80
2024/01/02 17:32:39;;;;;;;37.00;20.70;;;;;;;5.10;100.00;98818.36;113522;1236;22098;-80
2024/01/02 17:35:37;;;;;;;78.60;56.30;;;;;;;5.12;100.00;98815.38;113714;1236;21980;-81
2024/01/02 17:38:23;;;;;;;51.60;40.20;;;;;;;5.14;100.00;98812.56;112596;1242;22028;-81
2024/01/02 17:41:14;;;;;;;35.50;19.00;;;;;;;5.15;100.00;98808.54;112887;1242;21934;-80
2024/01/02 17:44:01;;;;;;;54.00;25.30;;;;;;;5.15;100.00;98807.87;112351;1245;21993;-80
2024/01/02 17:46:44;;;;;;;32.40;17.60;;;;;;;5.16;100.00;98806.59;112120;1247;21973;-79
2024/01/02 17:49:36;;;;;;;47.00;27.00;;;;;;;5.16;100.00;98806.25;112495;1243;22427;-82
2024/01/02 17:52:21;;;;;;;39.50;18.90;;;;;;;5.15;100.00;98803.20;112265;1246;23607;-80
2024/01/02 17:55:02;;;;;;;22.30;12.00;;;;;;;5.15;100.00;98801.13;111694;1251;21989;-80
2024/01/02 17:57:43;;;;;;;19.30;11.00;;;;;;;5.15;100.00;98803.70;112106;1244;22236;-79
2024/01/02 18:00:35;;;;;;;23.80;13.30;;;;;;;5.15;100.00;98796.30;111792;1247;21979;-80
2024/01/02 18:04:09;;;;;;;26.20;14.50;;;;;;;5.14;100.00;98795.64;112558;1242;22396;-78
2024/01/02 18:07:16;;;;;;;41.90;28.80;;;;;;;5.12;100.00;98790.70;112755;1242;21974;-78
2024/01/02 18:10:58;;;;;;;22.10;13.20;;;;;;;5.10;100.00;98785.79;113139;1239;21957;-80
2024/01/02 18:14:12;;;;;;;19.70;12.30;;;;;;;5.08;100.00;98785.20;113257;1240;21988;-78
2024/01/02 18:17:32;;;;;;;37.00;22.70;;;;;;;5.04;100.00;98779.66;113471;1240;23587;-80
2024/01/02 18:21:17;;;;;;;27.60;16.20;;;;;;;5.04;100.00;98772.79;113094;1240;21967;-80
2024/01/02 18:24:27;;;;;;;22.40;12.10;;;;;;;5.07;100.00;98760.95;112908;1240;21963;-79
2024/01/02 18:28:03;;;;;;;24.20;14.40;;;;;;;5.04;100.00;98755.34;112790;1240;23211;-77
2024/01/02 18:31:38;;;;;;;25.80;17.70;;;;;;;5.01;100.00;98754.09;113176;1240;22023;-79
2024/01/02 18:35:39;;;;;;;24.50;15.70;;;;;;;5.00;100.00;98745.36;112491;1244;24419;-78
2024/01/02 18:38:32;;;;;;;20.40;13.20;;;;;;;4.99;100.00;98732.44;112634;1244;21949;-78
2024/01/02 18:42:19;;;;;;;;;;;;;;;;;;;;;
2024/01/02 18:45:51;;;;;;;24.50;14.60;;;;;;;4.94;100.00;98719.58;112822;1243;21953;-77
2024/01/02 18:48:59;;;;;;;25.70;13.40;;;;;;;4.94;100.00;98715.61;112504;1243;21975;-79
2024/01/02 18:52:59;;;;;;;22.40;15.20;;;;;;;4.91;100.00;98713.30;112827;1238;21965;-79
2024/01/02 18:55:46;;;;;;;23.50;15.40;;;;;;;4.90;100.00;98715.75;113202;1238;21939;-78
2024/01/02 19:02:06;;;;;;;34.90;28.30;;;;;;;4.92;100.00;98704.98;113031;1241;22112;-79
2024/01/02 19:05:04;;;;;;;44.20;23.50;;;;;;;4.91;100.00;98698.48;112800;1241;21949;-84
2024/01/02 19:09:11;;;;;;;;;;;;;;;;;;;;;
2024/01/02 19:12:56;;;;;;;33.40;19.40;;;;;;;4.83;100.00;98688.61;111409;1253;23073;-84
2024/01/02 19:16:46;;;;;;;24.70;14.60;;;;;;;4.81;100.00;98684.39;111428;1258;23706;-81
2024/01/02 19:20:09;;;;;;;29.00;17.70;;;;;;;4.81;100.00;98679.94;111129;1258;22456;-81
2024/01/02 19:23:29;;;;;;;27.30;14.90;;;;;;;4.79;100.00;98680.20;111244;1258;22016;-85
2024/01/02 19:26:42;;;;;;;31.60;19.10;;;;;;;4.77;100.00;98678.36;111196;1258;22005;-83
2024/01/02 19:29:46;;;;;;;22.10;14.30;;;;;;;4.80;100.00;98675.51;111111;1260;21976;-85
2024/01/02 19:33:03;;;;;;;24.40;13.80;;;;;;;4.81;100.00;98670.10;111206;1257;22072;-85
2024/01/02 19:36:28;;;;;;;;;;;;;;;;;;;;;
2024/01/02 19:40:32;;;;;;;22.10;12.80;;;;;;;4.82;100.00;98657.46;111405;1255;22402;-85
2024/01/02 19:44:20;;;;;;;;;;;;;;;;;;;;;
2024/01/02 19:48:00;;;;;;;;;;;;;;;;;;;;;
2024/01/02 19:51:52;;;;;;;;;;;;;;;;;;;;;
2024/01/02 19:55:14;;;;;;;20.80;13.40;;;;;;;4.83;100.00;98626.91;110967;1260;23720;-81
2024/01/02 19:58:39;;;;;;;19.90;14.00;;;;;;;4.87;100.00;98625.17;110976;1260;21991;-82
2024/01/02 20:02:26;;;;;;;;;;;;;;;;;;;;;
2024/01/02 20:06:15;;;;;;;;;;;;;;;;;;;;;
2024/01/02 20:10:18;;;;;;;22.90;13.70;;;;;;;4.85;100.00;98619.41;111412;1256;23333;-83
2024/01/02 20:15:24;;;;;;;;;;;;;;;;;;;;;
2024/01/02 20:19:23;;;;;;;21.30;15.40;;;;;;;4.85;100.00;98608.92;111447;1252;22879;-83
2024/01/02 20:23:32;;;;;;;24.80;17.00;;;;;;;4.89;100.00;98604.45;110066;1267;22242;-84
2024/01/02 20:30:45;;;;;;;;;;;;;;;;;;;;;
2024/01/02 20:38:11;;;;;;;;;;;;;;;;;;;;;
2024/01/02 20:42:42;;;;;;;;;;;;;;;;;;;;;
2024/01/02 20:46:32;;;;;;;;;;;;;;;;;;;;;
2024/01/02 20:50:36;;;;;;;;;;;;;;;;;;;;;
2024/01/02 20:54:17;;;;;;;29.50;18.70;;;;;;;5.02;100.00;98568.70;110687;1263;23056;-84
2024/01/02 21:01:01;;;;;;;22.50;16.80;;;;;;;4.98;100.00;98555.83;110317;1266;22179;-82
2024/01/02 21:04:04;;;;;;;18.80;14.80;;;;;;;4.95;100.00;98545.91;110495;1265;22068;-82
2024/01/02 21:07:38;;;;;;;20.90;15.50;;;;;;;4.96;100.00;98548.83;110479;1261;21994;-82
2024/01/02 21:15:11;;;;;;;;;;;;;;;;;;;;;
2024/01/02 21:18:33;;;;;;;29.10;21.80;;;;;;;4.84;100.00;98533.48;109074;1278;22022;-81
2024/01/02 21:31:11;;;;;;;;;;;;;;;;;;;;;